Latest Weather Observations for Coober Pedy Airport

IDS60801

Issued at 4:31 pm CST Saturday 23 May 2015 (issued every 30 minutes, with the page automatically refreshed every 10 minutes)

About weather observations | Map of weather stations | Latest weather observations for SA | Other Formats
Station Details ID: 016090 Name: COOBER PEDY AIRPORT Lat: -29.03 Lon: 134.72 Height: 225.0 m
Data from the previous 72 hours. | See also: Recent months at Coober Pedy Airport
Date/Time
CST
Temp
°C
App
Temp
°C
Dew
Point
Rel
Hum
%
Delta-T
°C
Wind Press
QNH
hPa
Press
MSL
hPa
Rain
since 9 am
mm
Dir
 
Spd
km/h
Gust
km/h
Spd
kts
Gust
kts
23/04:30pm 17.2 11.9 2.0 36 6.9 NE 19 24 10 13 1025.3 1025.0 0.0
23/04:00pm 17.4 12.1 1.8 35 7.0 NE 19 28 10 15 1025.2 1024.9 0.0
23/03:30pm 17.5 11.9 1.5 34 7.2 NE 20 26 11 14 1025.2 1024.9 0.0
23/03:00pm 18.5 12.7 2.4 34 7.4 NNE 22 30 12 16 1025.3 1025.0 0.0
23/02:30pm 18.2 12.3 1.7 33 7.5 NE 22 33 12 18 1025.4 1025.1 0.0
23/02:00pm 17.7 11.6 2.5 36 7.0 NNE 24 39 13 21 1025.9 1025.6 0.0
23/01:30pm 17.5 11.7 2.3 36 6.9 NE 22 32 12 17 1026.4 1026.2 0.0
23/01:00pm 17.2 10.7 2.4 37 6.8 NE 26 43 14 23 1026.9 1026.6 0.0
23/12:30pm 17.0 10.5 2.6 38 6.6 NE 26 35 14 19 1027.4 1027.1 0.0
23/12:00pm 16.2 9.3 2.6 40 6.2 NE 28 35 15 19 1027.8 1027.5 0.0
23/11:30am 16.2 9.0 2.9 41 6.1 NE 30 39 16 21 1028.2 1027.9 0.0
23/11:00am 14.9 7.5 1.8 41 5.8 NE 30 41 16 22 1028.4 1028.1 0.0
23/10:30am 14.0 7.0 2.0 44 5.3 NE 28 33 15 18 1028.5 1028.2 0.0
23/10:00am 12.3 6.0 1.6 48 4.6 NE 24 30 13 16 1028.8 1028.5 0.0
23/09:30am 11.2 5.3 1.7 52 4.0 NE 22 26 12 14 1029.0 1028.7 0.0
23/09:00am 10.0 4.6 1.4 55 3.6 ENE 19 22 10 12 1028.8 1028.5 0.0
23/08:30am 8.3 4.3 0.8 59 3.0 ENE 11 13 6 7 1029.0 1028.7 0.0
23/08:00am 6.3 2.6 -0.2 63 2.5 ENE 9 11 5 6 1028.7 1028.4 0.0
23/07:30am 4.9 0.4 -0.3 69 2.0 ENE 13 15 7 8 1028.4 1028.1 0.0
23/07:00am 3.5 -0.4 -1.4 70 1.8 NE 9 11 5 6 1028.5 1028.2 0.0
23/06:30am 4.6 0.4 -0.6 69 2.0 ENE 11 13 6 7 1028.0 1027.7 0.0
23/06:00am 5.4 0.2 0.0 68 2.1 E 17 20 9 11 1027.8 1027.5 0.0
23/05:30am 5.7 0.9 0.1 67 2.2 E 15 17 8 9 1028.0 1027.7 0.0
23/05:00am 5.4 0.5 -0.4 66 2.2 ENE 15 17 8 9 1027.6 1027.3 0.0
23/04:30am 5.4 1.3 -0.4 66 2.2 E 11 11 6 6 1027.8 1027.5 0.0
23/04:00am 6.0 1.1 -0.3 64 2.4 ESE 15 17 8 9 1027.8 1027.5 0.0
23/03:30am 6.3 1.4 -0.4 62 2.6 ESE 15 17 8 9 1028.0 1027.7 0.0
23/03:00am 7.0 3.0 0.2 62 2.7 ESE 11 13 6 7 1028.3 1028.0 0.0
23/02:30am 7.7 3.7 0.4 60 2.9 ESE 11 11 6 6 1028.3 1028.0 0.0
23/02:00am 7.8 4.2 0.5 60 2.9 E 9 11 5 6 1028.5 1028.2 0.0
23/01:30am 7.8 3.0 0.3 59 3.0 E 15 17 8 9 1028.3 1028.0 0.0
23/01:00am 9.0 5.6 1.7 60 3.1 ESE 9 13 5 7 1028.6 1028.3 0.0
23/12:30am 8.2 5.3 1.6 63 2.7 ESE 6 11 3 6 1028.9 1028.6 0.0
23/12:00am 7.8 6.1 1.9 66 2.4 CALM 0 0 0 0 1029.2 1028.9 0.0
 
Date/Time
CST
Temp
°C
App
Temp
°C
Dew
Point
Rel
Hum
%
Delta-T
°C
Wind Press
QNH
hPa
Press
MSL
hPa
Rain
since 9 am
mm
Dir
 
Spd
km/h
Gust
km/h
Spd
kts
Gust
kts
22/11:30pm 7.9 6.1 1.1 62 2.8 CALM 0 0 0 0 1029.3 1029.0 0.0
22/11:00pm 7.8 3.9 -1.7 51 3.6 ESE 9 9 5 5 1029.5 1029.2 0.0
22/10:30pm 8.3 6.1 1.0 60 3.0 E 2 7 1 4 1029.5 1029.2 0.0
22/10:00pm 9.7 5.8 1.4 56 3.5 ESE 11 13 6 7 1029.5 1029.2 0.0
22/09:30pm 9.9 6.4 1.3 55 3.6 ESE 9 13 5 7 1029.3 1029.0 0.0
22/09:00pm 10.3 5.6 1.2 53 3.8 ESE 15 19 8 10 1028.9 1028.6 0.0
22/08:30pm 10.5 5.7 0.5 50 4.1 ESE 15 19 8 10 1028.6 1028.3 0.0
22/08:00pm 10.7 6.3 0.4 49 4.3 ESE 13 15 7 8 1028.8 1028.5 0.0
22/07:30pm 11.6 7.3 1.0 48 4.5 SE 13 13 7 7 1028.9 1028.6 0.0
22/07:00pm 12.3 8.7 0.7 45 4.9 SE 9 13 5 7 1028.8 1028.5 0.0
22/06:30pm 13.2 9.6 0.9 43 5.2 SE 9 13 5 7 1028.6 1028.3 0.0
22/06:00pm 14.3 10.1 1.6 42 5.5 ESE 13 15 7 8 1028.2 1027.9 0.0
22/05:30pm 14.8 10.6 1.7 41 5.8 ESE 13 17 7 9 1028.1 1027.8 0.0
22/05:00pm 15.2 10.6 1.7 40 6.0 SE 15 20 8 11 1027.9 1027.6 0.0
22/04:30pm 15.6 11.0 1.3 38 6.3 ESE 15 20 8 11 1028.0 1027.7 0.0
22/04:00pm 15.4 11.1 0.8 37 6.4 SE 13 17 7 9 1028.3 1028.0 0.0
22/03:30pm 15.7 12.2 1.1 37 6.4 E 9 13 5 7 1028.5 1028.2 0.0
22/03:00pm 15.5 11.6 1.3 38 6.2 SE 11 17 6 9 1028.5 1028.2 0.0
22/02:30pm 15.5 10.9 1.3 38 6.2 SE 15 20 8 11 1028.5 1028.2 0.0
22/02:00pm 15.1 10.8 0.9 38 6.2 SE 13 19 7 10 1028.7 1028.4 0.0
22/01:30pm 15.1 10.8 1.3 39 6.0 SE 13 26 7 14 1029.1 1028.8 0.0
22/01:00pm 14.8 11.0 1.7 41 5.8 E 11 17 6 9 1029.5 1029.2 0.0
22/12:30pm 14.6 10.4 1.8 42 5.6 SE 13 20 7 11 1030.2 1030.0 0.0
22/12:00pm 13.9 9.7 1.9 44 5.2 ESE 13 19 7 10 1030.9 1030.7 0.0
22/11:30am 13.6 9.2 2.5 47 4.9 E 15 20 8 11 1031.6 1031.3 0.0
22/11:00am 12.9 8.8 4.1 55 4.0 E 15 20 8 11 1032.3 1032.0 0.0
22/10:30am 12.7 8.1 3.9 55 4.0 E 17 22 9 12 1032.1 1031.8 0.0
22/10:00am 12.2 7.8 4.7 60 3.5 ESE 17 20 9 11 1032.2 1031.9 0.0
22/09:30am 11.0 6.9 4.5 64 2.9 ESE 15 22 8 12 1032.2 1031.9 0.0
22/09:00am 9.7 6.3 3.9 67 2.6 ESE 11 13 6 7 1032.4 1032.1 0.0
22/08:30am 7.9 4.7 3.2 72 2.0 SE 9 11 5 6 1032.0 1031.7 0.0
22/08:00am 6.0 3.0 1.9 75 1.7 SE 7 9 4 5 1031.5 1031.2 0.0
22/07:30am 4.8 0.6 1.8 81 1.2 SE 13 13 7 7 1030.8 1030.6 0.0
22/07:00am 4.6 0.1 2.0 83 1.1 SE 15 17 8 9 1030.3 1030.1 0.0
22/06:30am 4.4 0.2 1.6 82 1.1 SE 13 15 7 8 1030.0 1029.7 0.0
22/06:00am 4.5 0.3 1.4 80 1.2 SE 13 15 7 8 1029.4 1029.1 0.0
22/05:30am 5.1 0.5 1.6 78 1.4 SE 15 17 8 9 1029.2 1028.9 0.0
22/05:00am 5.6 1.4 1.7 76 1.6 SSE 13 17 7 9 1029.1 1028.8 0.0
22/04:30am 5.9 1.0 1.8 75 1.7 SSE 17 19 9 10 1029.0 1028.7 0.0
22/04:00am 4.6 0.5 -0.4 70 1.9 S 11 13 6 7 1029.0 1028.7 0.0
22/03:30am 5.1 1.8 0.3 71 1.9 SSE 7 7 4 4 1029.1 1028.8 0.0
22/03:00am 5.8 2.3 1.0 71 1.9 SSE 9 11 5 6 1029.1 1028.8 0.0
22/02:30am 5.8 2.3 1.0 71 1.9 S 9 11 5 6 1029.3 1029.0 0.0
22/02:00am 6.2 1.1 0.5 67 2.3 SSE 17 17 9 9 1029.1 1028.8 0.0
22/01:30am 6.4 2.8 0.7 67 2.3 S 9 9 5 5 1029.3 1029.0 0.0
22/01:00am 6.6 2.2 0.5 65 2.4 S 13 15 7 8 1029.5 1029.2 0.0
22/12:30am 6.7 2.3 0.4 64 2.5 S 13 13 7 7 1029.7 1029.4 0.0
22/12:00am 7.2 2.5 0.6 63 2.6 S 15 17 8 9 1029.6 1029.3 0.0
 
Date/Time
CST
Temp
°C
App
Temp
°C
Dew
Point
Rel
Hum
%
Delta-T
°C
Wind Press
QNH
hPa
Press
MSL
hPa
Rain
since 9 am
mm
Dir
 
Spd
km/h
Gust
km/h
Spd
kts
Gust
kts
21/11:30pm 7.4 2.6 0.4 61 2.8 S 15 17 8 9 1029.5 1029.2 0.0
21/11:00pm 7.7 3.4 0.7 61 2.8 SSW 13 15 7 8 1029.8 1029.5 0.0
21/10:30pm 7.9 3.2 0.9 61 2.8 S 15 15 8 8 1029.9 1029.6 0.0
21/10:00pm 8.4 4.1 0.9 59 3.1 SSW 13 15 7 8 1030.1 1029.8 0.0
21/09:30pm 9.1 4.8 1.0 57 3.3 SSW 13 15 7 8 1030.2 1030.0 0.0
21/09:00pm 9.8 5.6 1.5 56 3.5 SSW 13 15 7 8 1030.0 1029.7 0.0
21/08:30pm 10.7 6.1 1.8 54 3.8 S 15 17 8 9 1029.9 1029.6 0.0
21/08:00pm 11.5 6.6 1.7 51 4.2 S 17 19 9 10 1029.7 1029.4 0.0
21/07:30pm 12.1 7.2 1.7 49 4.5 S 17 20 9 11 1029.5 1029.2 0.0
21/07:00pm 12.1 7.1 1.4 48 4.6 S 17 19 9 10 1029.3 1029.0 0.0
21/06:30pm 13.1 6.5 1.8 46 4.9 S 26 32 14 17 1029.0 1028.7 0.0
21/06:00pm 13.6 7.7 1.6 44 5.2 S 22 33 12 18 1028.8 1028.5 0.0
21/05:30pm 14.2 6.4 1.8 43 5.4 S 32 43 17 23 1028.5 1028.2 0.0
21/05:00pm 14.6 7.6 1.8 42 5.7 S 28 35 15 19 1028.3 1028.0 0.0
21/04:30pm 14.7 6.7 1.9 42 5.6 S 33 41 18 22 1028.3 1028.0 0.0
21/04:00pm 15.6 7.9 2.4 41 6.0 S 32 41 17 22 1028.0 1027.7 0.0
21/03:30pm 15.6 8.2 2.1 40 6.0 S 30 39 16 21 1028.0 1027.7 0.0
21/03:00pm 15.8 9.0 2.9 42 5.9 S 28 35 15 19 1028.1 1027.8 0.0
21/02:30pm 15.6 8.7 2.4 41 5.9 S 28 39 15 21 1028.3 1028.0 0.0
21/02:00pm 15.9 9.8 2.7 41 6.0 S 24 35 13 19 1028.5 1028.2 0.0
21/01:30pm 14.7 7.8 2.3 43 5.5 S 28 37 15 20 1028.8 1028.5 0.0
21/01:00pm 14.4 7.5 2.3 44 5.4 S 28 41 15 22 1029.2 1028.9 0.0
21/12:30pm 14.0 7.6 3.2 48 4.9 S 26 37 14 20 1029.7 1029.4 0.0
21/12:00pm 14.0 7.3 3.5 49 4.8 S 28 33 15 18 1030.0 1029.7 0.0
21/11:30am 13.4 6.7 3.5 51 4.5 S 28 35 15 19 1030.3 1030.1 0.0
21/11:00am 12.5 6.2 3.5 54 4.1 S 26 37 14 20 1030.4 1030.2 0.0
21/10:30am 12.3 6.1 4.3 58 3.6 S 26 35 14 19 1030.5 1030.3 0.0
21/10:00am 10.8 5.1 4.7 66 2.8 S 24 32 13 17 1030.4 1030.2 0.0
21/09:30am 9.5 3.8 5.1 74 2.0 S 24 28 13 15 1030.1 1029.8 0.0
21/09:00am 8.2 2.9 5.1 81 1.4 SSW 22 26 12 14 1030.0 1029.7 0.0
21/08:30am 6.6 1.7 5.1 90 0.7 SSW 20 24 11 13 1029.7 1029.4 0.0
21/08:00am 5.3 0.9 4.6 95 0.3 SSW 17 19 9 10 1029.2 1028.9 0.0
21/07:30am 4.4 0.6 4.0 97 0.2 SW 13 17 7 9 1029.0 1028.7 0.0
21/07:00am 4.6 0.1 4.2 97 0.2 SW 17 19 9 10 1028.4 1028.1 0.0
21/06:30am 5.0 0.5 4.3 95 0.3 SSW 17 19 9 10 1028.0 1027.7 0.0
21/06:00am 5.3 0.9 4.6 95 0.3 SSW 17 20 9 11 1027.6 1027.3 0.0
21/05:30am 5.6 1.2 4.7 94 0.4 SSW 17 20 9 11 1027.3 1027.0 0.0
21/05:00am 5.8 1.4 4.9 94 0.4 SW 17 20 9 11 1027.1 1026.8 0.0
21/04:30am 6.2 1.5 5.2 93 0.4 SW 19 22 10 12 1027.0 1026.7 0.0
21/04:00am 6.7 1.9 5.5 92 0.5 SW 20 24 11 13 1026.8 1026.5 0.0
21/03:30am 7.0 2.2 5.6 91 0.6 SSW 20 24 11 13 1026.5 1026.3 0.0
21/03:00am 7.4 2.7 5.9 90 0.7 SW 20 26 11 14 1026.6 1026.4 0.0
21/02:30am 7.5 2.8 6.0 90 0.7 SW 20 24 11 13 1026.6 1026.4 0.0
21/02:00am 7.5 3.0 6.0 90 0.7 SW 19 20 10 11 1026.6 1026.4 0.0
21/01:30am 7.8 3.6 5.8 87 0.9 SW 17 20 9 11 1026.6 1026.4 0.0
21/01:00am 8.3 4.1 5.6 83 1.2 SW 17 20 9 11 1026.5 1026.3 0.0
21/12:30am 8.6 4.3 5.2 79 1.5 SW 17 20 9 11 1026.4 1026.2 0.0
21/12:00am 9.3 4.4 5.3 76 1.8 SW 20 22 11 12 1026.4 1026.2 0.0
 
Date/Time
CST
Temp
°C
App
Temp
°C
Dew
Point
Rel
Hum
%
Delta-T
°C
Wind Press
QNH
hPa
Press
MSL
hPa
Rain
since 9 am
mm
Dir
 
Spd
km/h
Gust
km/h
Spd
kts
Gust
kts
20/11:30pm 10.1 5.6 5.9 75 1.9 SW 19 22 10 12 1026.5 1026.3 0.0
20/11:00pm 10.3 6.6 6.5 77 1.8 SW 15 17 8 9 1026.1 1025.8 0.0
20/10:30pm 11.1 6.8 6.8 75 2.1 SSW 19 26 10 14 1025.9 1025.6 0.0
20/10:00pm 11.4 5.3 6.7 73 2.3 SW 28 33 15 18 1026.1 1025.8 0.0
20/09:30pm 11.7 6.5 7.2 74 2.2 SSW 24 30 13 16 1026.0 1025.7 0.0
20/09:00pm 12.0 6.7 6.7 70 2.5 SSW 24 28 13 15 1025.6 1025.3 0.0
20/08:30pm 11.9 5.9 7.2 73 2.3 SW 28 35 15 19 1025.4 1025.1 0.0
20/08:00pm 11.8 5.1 7.5 75 2.1 SSW 32 41 17 22 1025.0 1024.7 0.0
20/07:30pm 12.3 5.0 7.0 70 2.6 SSW 35 46 19 25 1024.4 1024.1 0.0
20/07:00pm 13.6 7.1 8.2 70 2.7 SSW 32 39 17 21 1023.8 1023.5 0.0
20/06:30pm 13.7 6.3 8.3 70 2.7 SSW 37 44 20 24 1023.2 1022.9 0.0
20/06:10pm 14.4 6.1 7.7 64 3.4 SSW 41 48 22 26 1022.6 1022.3 0.0
20/06:04pm 14.9 6.1 7.2 60 3.8 SSW 43 48 23 26 1022.5 - 0.0
20/06:00pm 15.9 9.3 2.3 40 6.1 WSW 26 35 14 19 1022.3 1021.9 0.0
20/05:30pm 16.5 8.9 2.9 40 6.2 WSW 32 43 17 23 1021.7 1021.4 0.0
20/05:00pm 17.2 9.7 3.5 40 6.4 WSW 32 41 17 22 1021.4 1021.1 0.0

Other Formats:

Comma delimited format used in spreadsheet applications
http://www.bom.gov.au/fwo/IDS60801/IDS60801.95458.axf

JavaScript Object Notation format (JSON) in row-major order
http://www.bom.gov.au/fwo/IDS60801/IDS60801.95458.json